Time;durP1;ratioP1;P1;durP2;ratioP2;P2;SDS_P1;SDS_P2;PMS_P1;PMS_P2;Temp;Humidity;BMP_temperature;BMP_pressure;BME280_temperature;BME280_humidity;BME280_pressure;Samples;Min_cycle;Max_cycle;Signal;HPM_P1;HPM_P2
2022/07/28 00:00:43;;;;;;;12.88;5.70;;;;;;;26.55;47.82;94818.78;5065716;28;20473;-59
2022/07/28 00:03:09;;;;;;;10.60;5.80;;;;;;;26.54;47.97;94823.50;5064836;28;20044;-58
2022/07/28 00:05:34;;;;;;;7.88;5.75;;;;;;;26.55;48.03;94813.31;5065629;28;20529;-59
2022/07/28 00:08:00;;;;;;;8.88;5.55;;;;;;;26.57;48.10;94827.91;5064912;28;20051;-56
2022/07/28 00:10:25;;;;;;;7.80;5.35;;;;;;;26.58;48.40;94839.63;5065620;28;20423;-58
2022/07/28 00:12:51;;;;;;;8.00;6.15;;;;;;;26.61;48.08;94838.56;5064924;28;20037;-60
2022/07/28 00:15:16;;;;;;;8.95;5.80;;;;;;;26.61;48.30;94860.47;5066044;28;20042;-59
2022/07/28 00:17:42;;;;;;;10.70;6.13;;;;;;;26.62;48.51;94867.41;5065170;28;20039;-59
2022/07/28 00:20:08;;;;;;;10.27;7.20;;;;;;;26.63;49.21;94875.09;5065529;28;20040;-58
2022/07/28 00:22:33;;;;;;;9.77;6.32;;;;;;;26.64;49.63;94886.81;5063256;28;20062;-60
2022/07/28 00:24:59;;;;;;;8.93;6.60;;;;;;;26.66;49.84;94887.00;5065181;28;20506;-59
2022/07/28 00:27:24;;;;;;;10.30;7.20;;;;;;;26.66;50.54;94867.81;5064793;28;20067;-58
2022/07/28 00:29:50;;;;;;;11.77;7.22;;;;;;;26.54;52.32;94839.22;5065149;28;20056;-58
2022/07/28 00:32:15;;;;;;;11.05;7.30;;;;;;;26.45;53.58;94820.50;5064399;28;20510;-60
2022/07/28 00:34:41;;;;;;;10.27;6.85;;;;;;;26.46;54.30;94816.50;5065274;28;20119;-59
2022/07/28 00:37:07;;;;;;;10.98;6.50;;;;;;;26.51;54.43;94810.16;5063883;28;20044;-58
2022/07/28 00:39:32;;;;;;;10.50;7.05;;;;;;;26.52;54.51;94809.63;5064793;28;20049;-59
2022/07/28 00:41:58;;;;;;;10.90;7.25;;;;;;;26.53;54.45;94793.91;5064035;28;20498;-59
2022/07/28 00:44:23;;;;;;;11.82;7.03;;;;;;;26.54;54.44;94798.88;5064971;28;20033;-60
2022/07/28 00:46:49;;;;;;;8.45;6.97;;;;;;;26.54;54.74;94809.09;5064394;28;20483;-59
2022/07/28 00:49:14;;;;;;;9.93;7.03;;;;;;;26.50;55.39;94827.84;5064978;28;20041;-59
2022/07/28 00:51:40;;;;;;;11.90;7.15;;;;;;;26.51;55.57;94856.72;5064280;28;20050;-60
2022/07/28 00:54:05;;;;;;;11.73;7.32;;;;;;;26.50;55.84;94844.28;5064678;28;20044;-60
2022/07/28 00:56:31;;;;;;;8.82;6.93;;;;;;;26.49;55.66;94859.28;5046040;28;20056;-58
2022/07/28 00:58:56;;;;;;;9.70;7.20;;;;;;;26.49;56.12;94856.53;5059803;28;20103;-59
2022/07/28 01:01:22;;;;;;;11.68;7.15;;;;;;;26.46;55.95;94866.53;5043968;28;20041;-59
2022/07/28 01:03:55;;;;;;;9.13;6.78;;;;;;;26.51;55.95;94884.13;5043609;28;20511;-59
2022/07/28 01:06:33;;;;;;;10.15;7.10;;;;;;;26.45;56.13;94872.53;5026790;28;20527;-59
2022/07/28 01:09:09;;;;;;;10.25;7.35;;;;;;;26.44;56.07;94873.81;5044622;28;20048;-60
2022/07/28 01:11:44;;;;;;;8.90;6.70;;;;;;;26.45;55.77;94880.75;5042787;28;20033;-59
2022/07/28 01:14:30;;;;;;;9.02;7.15;;;;;;;26.44;56.03;94879.28;5046575;28;20041;-60
2022/07/28 01:17:01;;;;;;;9.23;6.38;;;;;;;26.44;56.23;94884.75;5047838;28;20503;-59
2022/07/28 01:19:49;;;;;;;9.25;6.40;;;;;;;26.47;56.16;94872.75;5047400;28;20047;-59
2022/07/28 01:22:20;;;;;;;8.43;6.70;;;;;;;26.47;56.45;94862.53;5026537;28;20466;-58
2022/07/28 01:24:57;;;;;;;11.25;7.13;;;;;;;26.47;56.27;94861.78;5064015;28;20037;-62
2022/07/28 01:27:25;;;;;;;9.90;7.18;;;;;;;26.49;55.85;94848.31;5048342;28;20029;-60
2022/07/28 01:30:03;;;;;;;10.15;6.82;;;;;;;26.49;56.25;94848.31;5047580;28;20041;-58
2022/07/28 01:32:39;;;;;;;10.52;6.63;;;;;;;26.52;56.25;94855.47;5046577;28;20033;-59
2022/07/28 01:35:08;;;;;;;10.20;7.05;;;;;;;26.50;56.30;94844.28;5032049;28;20070;-57
2022/07/28 01:37:33;;;;;;;9.88;7.32;;;;;;;26.46;56.90;94843.91;5047100;28;20108;-59
2022/07/28 01:40:03;;;;;;;8.25;6.78;;;;;;;26.49;56.51;94840.09;5031034;28;20052;-57
2022/07/28 01:42:36;;;;;;;;;;;;;;;26.52;56.60;94847.25;5048570;28;20033;-58
2022/07/28 01:45:02;;;;;;;8.40;6.47;;;;;;;26.49;56.28;94840.09;5048193;28;19924;-58
2022/07/28 01:47:31;;;;;;;9.35;6.75;;;;;;;26.49;56.76;94837.34;5030487;28;20040;-55
2022/07/28 01:49:58;;;;;;;11.10;7.40;;;;;;;26.50;56.75;94834.09;5043640;28;20068;-59
2022/07/28 01:52:24;;;;;;;12.07;7.20;;;;;;;26.53;56.92;94837.75;5022744;28;20116;-60
2022/07/28 01:54:50;;;;;;;8.43;6.57;;;;;;;26.52;56.49;94836.28;5027077;28;20397;-59
2022/07/28 01:57:16;;;;;;;9.70;6.97;;;;;;;26.52;56.89;94847.25;5037106;28;20546;-59
2022/07/28 01:59:41;;;;;;;9.65;7.07;;;;;;;26.51;56.54;94840.28;5046652;28;20033;-60
2022/07/28 02:02:07;;;;;;;10.15;7.03;;;;;;;26.55;56.46;94840.69;5046066;28;20044;-60
2022/07/28 02:04:33;;;;;;;8.55;6.82;;;;;;;26.56;56.24;94850.38;5046668;28;20063;-59
2022/07/28 02:06:59;;;;;;;9.85;6.97;;;;;;;26.56;56.77;94853.09;5046092;28;20088;-57
2022/07/28 02:09:24;;;;;;;9.20;6.78;;;;;;;26.57;56.50;94849.84;5046963;28;20017;-60
2022/07/28 02:11:51;;;;;;;8.27;6.88;;;;;;;26.56;56.72;94848.38;5046694;28;20025;-60
2022/07/28 02:14:20;;;;;;;9.52;7.15;;;;;;;26.57;56.89;94860.06;5046358;28;20021;-57
2022/07/28 02:16:51;;;;;;;9.43;6.45;;;;;;;26.57;57.01;94857.31;5046075;28;20547;-59
2022/07/28 02:19:17;;;;;;;9.75;7.60;;;;;;;26.56;56.91;94864.06;5046441;28;20040;-57
2022/07/28 02:21:43;;;;;;;9.13;7.40;;;;;;;26.59;56.28;94863.00;5026633;28;20496;-57
2022/07/28 02:24:08;;;;;;;8.95;7.25;;;;;;;26.58;56.66;94856.06;5029809;28;20025;-59
2022/07/28 02:26:38;;;;;;;8.25;7.32;;;;;;;26.61;56.63;94860.47;5045349;28;20029;-55
2022/07/28 02:29:04;;;;;;;;;;;;;;;26.63;56.34;94863.41;5026767;28;20483;-58
2022/07/28 02:31:32;;;;;;;8.52;6.57;;;;;;;26.58;56.73;94858.81;5039931;28;19917;-57
2022/07/28 02:33:58;;;;;;;9.85;7.60;;;;;;;26.58;56.70;94861.53;5029324;28;20041;-56
2022/07/28 02:36:37;;;;;;;10.27;7.00;;;;;;;26.56;56.38;94864.06;5062226;28;20542;-57
2022/07/28 02:39:07;;;;;;;8.10;7.00;;;;;;;26.59;56.39;94868.47;5048304;28;20490;-59
2022/07/28 02:41:37;;;;;;;10.65;8.13;;;;;;;26.57;56.56;94865.53;5045908;28;20029;-59
2022/07/28 02:44:06;;;;;;;9.02;7.45;;;;;;;26.56;56.11;94858.59;5047422;28;20089;-59
2022/07/28 02:46:39;;;;;;;8.75;7.13;;;;;;;26.56;56.30;94861.31;5045546;28;20040;-59
2022/07/28 02:49:06;;;;;;;11.35;8.05;;;;;;;26.57;56.03;94860.06;5026735;28;20420;-57
2022/07/28 02:51:32;;;;;;;10.90;7.20;;;;;;;26.58;56.16;94861.53;5028374;28;20033;-57
2022/07/28 02:53:57;;;;;;;10.13;7.20;;;;;;;26.56;55.93;94869.53;5046489;28;20065;-57
2022/07/28 02:56:23;;;;;;;11.35;7.47;;;;;;;26.57;56.28;94871.75;5045054;28;20060;-55
2022/07/28 02:58:49;;;;;;;10.40;7.57;;;;;;;26.58;56.25;94869.75;5045491;28;20052;-58
2022/07/28 03:01:16;;;;;;;9.70;7.10;;;;;;;26.58;55.84;94872.50;5028653;28;20068;-58
2022/07/28 03:03:42;;;;;;;10.50;7.63;;;;;;;26.58;56.04;94865.00;5045479;28;20025;-58
2022/07/28 03:06:07;;;;;;;9.68;6.88;;;;;;;26.59;56.09;94863.00;5045370;28;20557;-58
2022/07/28 03:08:33;;;;;;;8.57;6.97;;;;;;;26.55;56.88;94873.56;5028560;28;20033;-60
2022/07/28 03:11:06;;;;;;;9.15;7.32;;;;;;;26.54;56.82;94872.09;5025154;28;20037;-58
2022/07/28 03:13:31;;;;;;;8.40;7.30;;;;;;;26.57;56.48;94876.50;5045285;28;20045;-59
2022/07/28 03:15:57;;;;;;;9.25;6.85;;;;;;;26.56;56.35;94875.03;5046467;28;20143;-59
2022/07/28 03:18:26;;;;;;;10.90;7.10;;;;;;;26.52;56.27;94869.88;5046145;28;20037;-61
2022/07/28 03:20:51;;;;;;;10.02;7.20;;;;;;;26.53;56.32;94865.88;5046317;28;20033;-60
2022/07/28 03:23:17;;;;;;;9.02;7.20;;;;;;;26.55;56.67;94859.88;5044548;28;20067;-61
2022/07/28 03:25:44;;;;;;;10.63;7.40;;;;;;;26.53;56.59;94859.66;5045040;28;20044;-62
2022/07/28 03:28:13;;;;;;;8.57;7.05;;;;;;;26.52;56.37;94856.19;5044888;28;20113;-59
2022/07/28 03:30:40;;;;;;;8.95;7.18;;;;;;;26.54;57.09;94861.13;5046366;28;20499;-59
2022/07/28 03:33:06;;;;;;;9.35;7.28;;;;;;;26.53;56.54;94856.91;5044505;28;20515;-59
2022/07/28 03:35:32;;;;;;;9.43;7.22;;;;;;;26.54;56.73;94859.13;5044833;28;20029;-60
2022/07/28 03:38:13;;;;;;;8.10;6.63;;;;;;;26.53;57.33;94860.41;5060083;28;20063;-59
2022/07/28 03:40:39;;;;;;;10.00;7.32;;;;;;;26.52;56.95;94853.44;5047178;28;20044;-60
2022/07/28 03:43:07;;;;;;;8.82;6.82;;;;;;;26.54;56.82;94855.66;5024237;28;20041;-59
2022/07/28 03:45:35;;;;;;;9.23;7.35;;;;;;;26.53;57.09;94826.78;5053658;28;20498;-60
2022/07/28 03:48:00;;;;;;;10.63;8.20;;;;;;;26.52;57.14;94841.78;5011425;28;20112;-61
2022/07/28 03:50:27;;;;;;;9.57;7.90;;;;;;;26.48;57.38;94836.59;5028197;28;20692;-60
2022/07/28 03:52:53;;;;;;;10.38;8.00;;;;;;;26.50;57.52;94816.91;5044067;28;20060;-59
2022/07/28 03:55:18;;;;;;;9.98;8.00;;;;;;;26.51;57.09;94812.91;5044838;28;20521;-61
2022/07/28 03:57:44;;;;;;;9.55;7.57;;;;;;;26.49;57.63;94804.50;5054409;28;20093;-59
2022/07/28 04:00:10;;;;;;;10.07;7.93;;;;;;;26.48;57.21;94803.00;5047794;28;20097;-60
2022/07/28 04:02:36;;;;;;;9.63;7.55;;;;;;;26.47;57.07;94785.09;5065028;28;20029;-60
2022/07/28 04:05:01;;;;;;;11.57;7.57;;;;;;;26.44;56.90;94788.91;5054458;28;20028;-60
2022/07/28 04:07:27;;;;;;;10.63;7.10;;;;;;;26.44;56.87;94786.16;5064930;28;21012;-60
2022/07/28 04:09:52;;;;;;;11.00;7.95;;;;;;;26.45;56.44;94793.13;5065586;28;20973;-59
2022/07/28 04:12:18;;;;;;;10.38;7.75;;;;;;;26.45;56.77;94801.34;5046788;28;20422;-58
2022/07/28 04:14:43;;;;;;;10.85;8.23;;;;;;;26.40;56.58;94807.69;5065383;28;20047;-59
2022/07/28 04:17:09;;;;;;;9.57;7.75;;;;;;;26.39;56.57;94803.47;5060565;28;20029;-60
2022/07/28 04:19:34;;;;;;;10.90;8.38;;;;;;;26.40;56.77;94802.94;5058205;28;20137;-60
2022/07/28 04:22:00;;;;;;;11.63;7.78;;;;;;;26.39;57.17;94790.50;5052545;28;20040;-59
2022/07/28 04:24:25;;;;;;;8.85;7.68;;;;;;;26.41;57.18;94787.25;5056056;28;20113;-60
2022/07/28 04:26:51;;;;;;;8.48;7.30;;;;;;;26.39;57.29;94787.06;5065144;28;20554;-60
2022/07/28 04:29:16;;;;;;;10.05;7.97;;;;;;;26.40;57.54;94813.91;5065895;28;20036;-60
2022/07/28 04:31:42;;;;;;;9.77;7.95;;;;;;;26.39;57.76;94850.03;5056526;28;20044;-60
2022/07/28 04:34:08;;;;;;;9.98;7.70;;;;;;;26.39;58.19;94855.50;5044611;28;20041;-58
2022/07/28 04:36:40;;;;;;;10.50;8.07;;;;;;;26.38;58.47;94856.75;5044340;28;20509;-60
2022/07/28 04:39:06;;;;;;;10.20;7.95;;;;;;;26.39;57.88;94874.69;5044275;28;20100;-61
2022/07/28 04:41:32;;;;;;;10.27;7.53;;;;;;;26.40;57.96;94884.38;5043971;28;20098;-59
2022/07/28 04:43:58;;;;;;;10.52;7.35;;;;;;;26.26;58.31;94885.63;5057934;28;20028;-58
2022/07/28 04:46:23;;;;;;;10.48;8.25;;;;;;;26.07;58.87;94874.13;5064843;28;20479;-57
2022/07/28 04:48:49;;;;;;;9.70;7.82;;;;;;;26.09;58.96;94877.06;5065014;28;20048;-55
2022/07/28 04:51:14;;;;;;;10.60;8.60;;;;;;;26.06;59.38;94878.13;5062527;28;20040;-59
2022/07/28 04:53:40;;;;;;;11.45;9.07;;;;;;;26.00;59.60;94888.44;5026294;28;20095;-58
2022/07/28 04:56:05;;;;;;;12.13;9.13;;;;;;;25.94;59.69;94882.34;5042963;28;20045;-56
2022/07/28 04:58:31;;;;;;;9.82;8.38;;;;;;;25.86;59.67;94870.59;5058643;28;20049;-60
2022/07/28 05:00:56;;;;;;;10.23;8.52;;;;;;;25.90;59.71;94876.47;5063707;28;20032;-59
2022/07/28 05:03:21;;;;;;;11.77;9.30;;;;;;;25.84;59.57;94878.59;5063269;28;20032;-57
2022/07/28 05:05:47;;;;;;;12.43;8.70;;;;;;;25.87;59.77;94874.81;5063987;28;20093;-59
2022/07/28 05:08:12;;;;;;;11.50;8.88;;;;;;;25.91;59.79;94861.50;5062899;28;20031;-60
2022/07/28 05:10:38;;;;;;;12.88;10.07;;;;;;;25.95;59.79;94878.34;5064187;28;21520;-59
2022/07/28 05:13:05;;;;;;;12.18;9.30;;;;;;;25.99;59.94;94873.31;5062331;28;20047;-61
2022/07/28 05:15:30;;;;;;;11.38;9.05;;;;;;;26.03;59.74;94870.97;5046169;28;20048;-58
2022/07/28 05:17:56;;;;;;;10.32;8.35;;;;;;;26.08;59.58;94856.41;5062527;28;20103;-57
2022/07/28 05:20:21;;;;;;;12.63;9.20;;;;;;;26.12;59.73;94862.31;5063820;28;20047;-57
2022/07/28 05:22:49;;;;;;;12.80;9.40;;;;;;;26.18;60.31;94879.34;5061546;28;20530;-59
2022/07/28 05:25:16;;;;;;;12.75;9.45;;;;;;;26.07;59.74;94895.25;5063840;28;20086;-56
2022/07/28 05:27:41;;;;;;;12.45;10.23;;;;;;;26.04;59.85;94899.81;5062836;28;20549;-57
2022/07/28 05:30:08;;;;;;;12.43;9.60;;;;;;;26.04;60.11;94902.53;5063901;28;20059;-57
2022/07/28 05:32:33;;;;;;;11.45;9.38;;;;;;;26.06;59.68;94910.97;5061960;28;20575;-58
2022/07/28 05:34:59;;;;;;;11.48;9.40;;;;;;;26.22;59.56;94907.13;5064528;28;20036;-58
2022/07/28 05:37:25;;;;;;;13.30;9.45;;;;;;;26.31;58.86;94914.94;5064055;28;20036;-58
2022/07/28 05:39:50;;;;;;;13.57;9.52;;;;;;;26.28;58.53;94907.78;5065199;28;20036;-54
2022/07/28 05:42:16;;;;;;;14.02;10.20;;;;;;;26.41;57.81;94899.50;5063953;28;20037;-55
2022/07/28 05:44:41;;;;;;;11.25;9.00;;;;;;;26.42;58.36;94881.81;5064100;28;20490;-55
2022/07/28 05:47:07;;;;;;;13.38;9.95;;;;;;;26.49;58.94;94892.13;5063848;28;20048;-57
2022/07/28 05:49:32;;;;;;;13.13;10.30;;;;;;;26.46;58.55;94904.16;5064107;28;20033;-54
2022/07/28 05:51:58;;;;;;;12.85;10.75;;;;;;;26.35;58.60;94898.91;5063288;28;20514;-55
2022/07/28 05:54:23;;;;;;;12.70;10.85;;;;;;;26.35;58.89;94888.72;5064186;28;20082;-54
2022/07/28 05:56:49;;;;;;;13.05;10.60;;;;;;;26.43;58.56;94886.78;5063422;28;20486;-55
2022/07/28 05:59:15;;;;;;;12.68;10.50;;;;;;;26.51;58.14;94884.13;5063916;28;20136;-57
2022/07/28 06:01:41;;;;;;;15.25;10.88;;;;;;;26.55;57.92;94879.06;5036458;28;20107;-57
2022/07/28 06:04:06;;;;;;;14.40;10.85;;;;;;;26.60;58.46;94880.91;5067885;28;20510;-58
2022/07/28 06:06:32;;;;;;;12.60;10.38;;;;;;;26.65;58.17;94874.56;5066982;28;20040;-56
2022/07/28 06:08:57;;;;;;;13.88;10.50;;;;;;;26.70;58.43;94879.91;5067529;28;20040;-56
2022/07/28 06:11:23;;;;;;;13.82;11.52;;;;;;;26.77;58.18;94880.00;5054001;28;20518;-55
2022/07/28 06:13:49;;;;;;;11.75;10.15;;;;;;;26.72;56.73;94876.66;5052060;28;20041;-57
2022/07/28 06:16:15;;;;;;;13.38;10.35;;;;;;;26.73;56.78;94878.13;5056371;28;20326;-57
2022/07/28 06:18:42;;;;;;;14.48;10.75;;;;;;;26.62;58.01;94878.38;5066976;28;21083;-56
2022/07/28 06:21:08;;;;;;;13.52;10.45;;;;;;;26.57;58.60;94876.50;5059084;28;21681;-58
2022/07/28 06:23:33;;;;;;;13.88;10.40;;;;;;;26.55;57.76;94873.56;5042390;28;20032;-58
2022/07/28 06:25:59;;;;;;;15.07;11.40;;;;;;;26.63;59.43;94875.09;5065822;28;20600;-55
2022/07/28 06:28:25;;;;;;;14.00;10.52;;;;;;;26.74;58.17;94876.84;5062405;28;20566;-57
2022/07/28 06:30:50;;;;;;;13.23;10.52;;;;;;;26.80;57.40;94878.16;5057158;28;20047;-58
2022/07/28 06:33:16;;;;;;;14.65;11.23;;;;;;;26.76;57.58;94899.69;5057260;28;20740;-58
2022/07/28 06:35:41;;;;;;;14.88;11.48;;;;;;;26.71;58.75;94899.81;5053146;28;20032;-57
2022/07/28 06:38:07;;;;;;;13.73;10.88;;;;;;;26.80;57.27;94895.38;5066199;28;20515;-57
2022/07/28 06:40:33;;;;;;;13.05;10.27;;;;;;;26.86;56.78;94882.25;5055228;28;20110;-57
2022/07/28 06:42:58;;;;;;;13.20;10.43;;;;;;;26.81;57.16;94894.06;5056723;28;20036;-59
2022/07/28 06:45:24;;;;;;;11.48;9.50;;;;;;;26.78;57.02;94892.41;5060200;28;20048;-58
2022/07/28 06:47:49;;;;;;;10.73;9.35;;;;;;;26.84;57.29;94890.25;5045981;28;20041;-58
2022/07/28 06:50:15;;;;;;;13.90;10.20;;;;;;;26.84;56.90;94879.31;5046205;28;20071;-59
2022/07/28 06:52:40;;;;;;;18.65;11.77;;;;;;;26.84;56.67;94884.78;5045967;28;20036;-61
2022/07/28 06:55:06;;;;;;;19.23;10.90;;;;;;;26.83;56.41;94886.06;5046295;28;20495;-58
2022/07/28 06:57:34;;;;;;;16.73;10.88;;;;;;;26.84;57.50;94871.06;5048284;28;20045;-56
2022/07/28 07:00:02;;;;;;;13.77;9.70;;;;;;;26.89;57.20;94881.22;5061102;28;20098;-59
2022/07/28 07:02:27;;;;;;;14.20;9.75;;;;;;;26.91;56.93;94884.16;5041464;28;20045;-59
2022/07/28 07:04:53;;;;;;;13.23;9.38;;;;;;;26.96;56.21;94890.75;5042921;28;20185;-59
2022/07/28 07:07:18;;;;;;;11.98;9.30;;;;;;;26.96;56.02;94890.75;5045637;28;20048;-58
2022/07/28 07:09:43;;;;;;;15.00;9.63;;;;;;;26.96;55.38;94890.75;5028792;28;20037;-59
2022/07/28 07:12:09;;;;;;;13.75;9.20;;;;;;;26.90;55.73;94888.16;5045992;28;20037;-59
2022/07/28 07:14:35;;;;;;;13.75;9.90;;;;;;;26.91;55.46;94886.88;5047076;28;20395;-58
2022/07/28 07:17:00;;;;;;;13.95;9.95;;;;;;;26.84;55.80;94890.25;5046284;28;20490;-59
2022/07/28 07:19:25;;;;;;;14.82;10.73;;;;;;;26.81;55.66;94888.59;5046485;28;20033;-59
2022/07/28 07:21:51;;;;;;;13.95;10.07;;;;;;;26.82;55.48;94892.81;5027645;28;20503;-60
2022/07/28 07:24:16;;;;;;;13.65;9.80;;;;;;;26.83;55.75;94891.56;5027969;28;20033;-59
2022/07/28 07:26:42;;;;;;;12.38;9.32;;;;;;;26.85;55.35;94891.00;5045762;28;20040;-56
2022/07/28 07:29:08;;;;;;;11.60;9.88;;;;;;;26.84;55.66;94895.75;5045621;28;20060;-59
2022/07/28 07:31:37;;;;;;;17.10;10.15;;;;;;;26.83;55.61;94899.78;5045473;28;20236;-59
2022/07/28 07:34:03;;;;;;;13.00;10.35;;;;;;;26.81;56.05;94894.06;5046056;28;20052;-58
2022/07/28 07:36:28;;;;;;;10.73;9.27;;;;;;;26.79;55.94;94898.63;5045133;28;20138;-58
2022/07/28 07:38:54;;;;;;;13.80;10.85;;;;;;;26.82;55.97;94901.03;5046086;28;20130;-58
2022/07/28 07:41:19;;;;;;;12.82;10.20;;;;;;;26.82;56.30;94901.03;5027644;28;20134;-59
2022/07/28 07:43:45;;;;;;;11.13;9.20;;;;;;;26.84;55.79;94903.25;5061220;28;20465;-59
2022/07/28 07:46:11;;;;;;;11.82;9.98;;;;;;;26.84;55.83;94912.19;5045984;28;20112;-55
2022/07/28 07:48:36;;;;;;;14.90;9.68;;;;;;;26.85;55.34;94919.16;5046601;28;20063;-59
2022/07/28 07:51:02;;;;;;;15.27;9.95;;;;;;;26.87;54.96;94922.06;5046530;28;20041;-58
2022/07/28 07:53:27;;;;;;;12.70;9.60;;;;;;;26.86;54.68;94931.59;5045677;28;20068;-58
2022/07/28 07:55:53;;;;;;;12.23;9.70;;;;;;;26.87;54.98;94927.56;5045269;28;20060;-58
2022/07/28 07:58:18;;;;;;;13.25;9.65;;;;;;;26.85;55.13;94919.16;5038059;28;20045;-58
2022/07/28 08:00:44;;;;;;;12.88;9.80;;;;;;;26.84;55.22;94923.16;5044721;28;20052;-58
2022/07/28 08:03:09;;;;;;;12.65;9.73;;;;;;;26.90;54.91;94929.25;5045302;28;20042;-58
2022/07/28 08:05:35;;;;;;;14.80;10.18;;;;;;;26.91;55.08;94933.47;5045257;28;20040;-56
2022/07/28 08:08:00;;;;;;;14.13;9.95;;;;;;;26.89;54.65;94941.50;5045073;28;20033;-55
2022/07/28 08:10:26;;;;;;;14.45;10.40;;;;;;;26.87;54.95;94932.31;5045485;28;20051;-59
2022/07/28 08:12:51;;;;;;;13.85;10.45;;;;;;;26.90;54.71;94932.00;5045358;28;20025;-56
2022/07/28 08:15:17;;;;;;;14.07;9.63;;;;;;;26.91;54.03;94928.00;5045594;28;20661;-57
2022/07/28 08:17:42;;;;;;;12.02;9.35;;;;;;;26.92;53.24;94924.00;5044682;28;20044;-56
2022/07/28 08:20:08;;;;;;;13.98;9.90;;;;;;;26.87;53.50;94927.56;5045361;28;20483;-58
2022/07/28 08:22:34;;;;;;;15.60;10.68;;;;;;;26.86;53.88;94931.59;5042783;28;20035;-57
2022/07/28 08:25:00;;;;;;;13.75;10.20;;;;;;;26.87;54.07;94937.78;5044938;28;20037;-57
2022/07/28 08:27:26;;;;;;;13.13;10.02;;;;;;;26.87;54.56;94935.78;5042873;28;20034;-58
2022/07/28 08:29:51;;;;;;;16.70;11.15;;;;;;;26.87;54.70;94941.25;5043761;28;20040;-57
2022/07/28 08:32:17;;;;;;;15.82;10.70;;;;;;;26.87;54.72;94946.03;5035431;28;20056;-58
2022/07/28 08:34:42;;;;;;;14.73;10.55;;;;;;;26.86;54.55;94945.28;5043625;28;20040;-58
2022/07/28 08:37:07;;;;;;;17.05;10.93;;;;;;;26.86;55.11;94953.50;5040217;28;20415;-56
2022/07/28 08:39:33;;;;;;;14.07;9.80;;;;;;;26.87;54.88;94954.97;5044165;28;20044;-59
2022/07/28 08:42:12;;;;;;;14.13;10.75;;;;;;;26.85;55.13;94959.53;5044804;28;20721;-58
2022/07/28 08:44:38;;;;;;;15.18;10.32;;;;;;;26.87;54.47;94965.94;5045061;28;20120;-58
2022/07/28 08:47:07;;;;;;;14.70;10.60;;;;;;;26.88;55.23;94959.19;5044838;28;20536;-58
2022/07/28 08:49:32;;;;;;;15.60;10.00;;;;;;;26.91;54.68;94957.44;5043363;28;20495;-58
2022/07/28 08:51:58;;;;;;;13.07;10.13;;;;;;;26.91;54.15;94960.88;5043340;28;20040;-59
2022/07/28 08:54:26;;;;;;;13.27;10.05;;;;;;;26.93;54.80;94963.09;5043352;28;20531;-59
2022/07/28 08:56:52;;;;;;;15.02;10.48;;;;;;;26.94;55.02;94959.81;5061819;28;20033;-58
2022/07/28 08:59:55;;;;;;;12.25;10.07;;;;;;;26.97;54.24;94966.97;5046446;28;20114;-59
2022/07/28 09:02:20;;;;;;;12.07;9.68;;;;;;;27.00;nan;94965.19;5047123;28;20041;-59
2022/07/28 09:04:46;;;;;;;15.45;10.82;;;;;;;27.03;54.05;94962.09;5043064;28;20021;-59
2022/07/28 09:07:11;;;;;;;11.48;9.80;;;;;;;27.02;53.81;94965.38;5036822;28;20450;-59
2022/07/28 09:09:38;;;;;;;14.00;10.60;;;;;;;27.05;54.13;94972.53;5064303;28;20550;-56
2022/07/28 09:12:04;;;;;;;12.95;9.50;;;;;;;27.03;53.75;94956.63;5064716;28;20123;-57
2022/07/28 09:14:30;;;;;;;12.55;9.77;;;;;;;27.07;53.79;94968.00;5064453;28;20135;-60
2022/07/28 09:17:00;;;;;;;12.30;9.70;;;;;;;27.12;53.95;94967.13;5064314;28;20029;-59
2022/07/28 09:19:26;;;;;;;;;;;;;;;27.24;54.41;94960.09;5040476;28;20044;-59
2022/07/28 09:21:51;;;;;;;13.80;9.77;;;;;;;27.33;53.78;94962.38;5044756;28;19975;-59
2022/07/28 09:24:39;;;;;;;13.63;9.73;;;;;;;27.47;54.14;94961.00;5026648;28;20037;-59
2022/07/28 09:27:09;;;;;;;13.27;10.73;;;;;;;27.66;53.26;94961.56;5052128;28;20093;-58
2022/07/28 09:29:36;;;;;;;12.57;10.07;;;;;;;27.74;52.49;94957.56;5064352;28;20052;-58
2022/07/28 09:32:02;;;;;;;13.75;10.40;;;;;;;27.85;52.58;94947.03;5055295;28;20037;-58
2022/07/28 09:34:32;;;;;;;15.00;11.25;;;;;;;27.98;52.65;94946.94;5044718;28;20115;-57
2022/07/28 09:36:57;;;;;;;13.30;10.85;;;;;;;28.07;52.09;94957.41;5057595;28;20032;-59
2022/07/28 09:39:33;;;;;;;16.55;10.95;;;;;;;28.26;52.16;94963.38;5048061;28;20040;-59
2022/07/28 09:41:58;;;;;;;16.08;11.38;;;;;;;28.35;51.86;94968.38;5030381;28;20107;-57
2022/07/28 09:44:25;;;;;;;17.10;11.48;;;;;;;28.43;51.24;94955.38;5048234;28;20028;-55
2022/07/28 09:46:51;;;;;;;16.33;12.05;;;;;;;28.53;51.45;94937.09;5048560;28;20056;-57
2022/07/28 09:49:16;;;;;;;16.85;11.68;;;;;;;28.62;50.53;94944.84;5034910;28;20506;-55
2022/07/28 09:51:42;;;;;;;15.85;11.65;;;;;;;28.70;50.24;94946.38;5067404;28;20059;-59
2022/07/28 09:54:16;;;;;;;14.70;11.73;;;;;;;28.82;49.81;94963.97;5049771;28;20044;-56
2022/07/28 09:56:43;;;;;;;16.85;11.68;;;;;;;28.88;50.02;94979.03;5049750;28;20036;-55
2022/07/28 09:59:08;;;;;;;13.55;10.88;;;;;;;28.99;49.72;94973.16;5043102;28;20503;-58
2022/07/28 10:01:49;;;;;;;15.35;11.52;;;;;;;29.11;49.11;94957.78;5038872;28;20032;-59
2022/07/28 10:04:14;;;;;;;16.85;11.90;;;;;;;29.25;49.47;94956.34;5049249;28;20028;-57
2022/07/28 10:06:40;;;;;;;16.52;11.93;;;;;;;29.34;48.89;94950.31;5042954;28;20037;-59
2022/07/28 10:09:13;;;;;;;16.27;12.63;;;;;;;29.50;48.58;94954.53;5052097;28;20029;-58
2022/07/28 10:11:38;;;;;;;13.65;10.45;;;;;;;29.58;48.30;94960.75;5063661;28;20040;-58
2022/07/28 10:14:05;;;;;;;13.55;10.13;;;;;;;29.67;47.56;94952.69;5047230;28;20033;-59
2022/07/28 10:16:35;;;;;;;14.38;10.70;;;;;;;29.68;47.37;94948.63;5048835;28;20944;-58
2022/07/28 10:19:03;;;;;;;12.85;10.10;;;;;;;29.72;46.73;94938.72;5063121;28;20036;-59
2022/07/28 10:21:30;;;;;;;15.00;9.93;;;;;;;29.73;47.12;94934.69;5060188;28;20033;-59
2022/07/28 10:24:01;;;;;;;12.45;10.05;;;;;;;29.78;47.13;94942.00;5066773;28;20426;-59
2022/07/28 10:26:29;;;;;;;10.23;9.10;;;;;;;29.82;46.87;94942.41;5021526;28;20847;-57
2022/07/28 10:28:55;;;;;;;13.45;9.68;;;;;;;29.74;47.06;94935.41;5053387;28;20533;-58
2022/07/28 10:31:45;;;;;;;12.15;10.10;;;;;;;29.74;47.37;94936.13;5048216;28;20025;-59
2022/07/28 10:34:16;;;;;;;13.55;9.40;;;;;;;29.70;46.96;94935.81;5042593;28;20041;-59
2022/07/28 10:36:42;;;;;;;12.15;9.88;;;;;;;29.71;47.08;94931.75;5032600;28;20082;-58
2022/07/28 10:39:12;;;;;;;15.30;9.60;;;;;;;29.64;47.21;94931.03;5030590;28;20036;-58
2022/07/28 10:41:39;;;;;;;13.57;9.38;;;;;;;29.59;46.92;94926.44;5053448;28;20427;-58
2022/07/28 10:44:04;;;;;;;10.50;8.75;;;;;;;29.50;47.02;94932.53;5028908;28;20490;-58
2022/07/28 10:46:30;;;;;;;13.80;9.60;;;;;;;29.51;47.30;94928.50;5060174;28;20041;-57
2022/07/28 10:48:55;;;;;;;10.02;8.48;;;;;;;29.44;46.80;94937.47;5025528;28;20038;-59
2022/07/28 10:51:21;;;;;;;11.73;9.52;;;;;;;29.43;46.63;94927.75;5043900;28;20040;-57
2022/07/28 10:54:06;;;;;;;10.30;8.30;;;;;;;29.37;46.60;94924.44;5048737;28;20499;-60
2022/07/28 10:56:32;;;;;;;9.88;8.85;;;;;;;29.32;46.73;94928.84;5065628;28;20117;-59
2022/07/28 10:59:35;;;;;;;11.35;8.80;;;;;;;29.31;46.91;94910.13;5066051;28;20068;-59
2022/07/28 11:02:00;;;;;;;10.95;8.32;;;;;;;29.23;46.41;94912.13;5038698;28;20052;-59
2022/07/28 11:04:46;;;;;;;10.35;8.07;;;;;;;29.21;46.62;94911.97;5052502;28;20036;-59
2022/07/28 11:07:13;;;;;;;11.05;8.10;;;;;;;29.10;46.75;94901.31;5051784;28;20097;-57
2022/07/28 11:09:39;;;;;;;11.50;8.20;;;;;;;29.05;46.61;94904.97;5064299;28;20064;-59
2022/07/28 11:12:05;;;;;;;9.80;8.02;;;;;;;29.01;46.72;94899.09;5045078;28;20067;-60
2022/07/28 11:14:32;;;;;;;11.55;8.38;;;;;;;29.00;47.15;94894.16;5046469;28;20033;-59
2022/07/28 11:17:04;;;;;;;10.45;8.23;;;;;;;29.02;46.84;94895.06;5062704;28;20029;-59
2022/07/28 11:19:44;;;;;;;10.30;8.65;;;;;;;29.01;46.39;94888.09;5066349;28;20731;-59
2022/07/28 11:22:17;;;;;;;11.07;8.43;;;;;;;28.98;46.46;94888.47;5064517;28;20036;-59
2022/07/28 11:25:12;;;;;;;10.32;8.60;;;;;;;28.96;46.47;94869.78;5066442;28;20051;-57
2022/07/28 11:27:41;;;;;;;9.75;8.30;;;;;;;28.92;46.95;94863.91;5048063;28;20090;-60